Terminal Aerodrome Forecast
Issued by NWS Upton, NY

Home | Current Version | Previous Version | Text Only | Print | Product List | Glossary On
Versions: 1 2 3 4 5 6 7 8 9 10 11 12 13 14 15 16 17 18 19 20 21 22 23 24 25 26 27 28 29 30 31 32 33 34 35 36
000
FTUS41 KOKX 310541
TAFJFK
TAF
KJFK 310541Z 3106/0112 14007KT P6SM -SHRA SCT015 BKN025
     FM310900 13009KT 4SM SHRA BR OVC015
     FM311600 12012KT 5SM -SHRA BR SCT015 BKN025
     FM312100 12010KT P6SM BKN025 OVC050 PROB30 3121/3124 5SM -SHRA
      BR
     FM010100 09007KT 5SM BR SCT008 OVC015=

USA.gov is the U.S. government's official web portal to all federal, state and local government web resources and services.